Řízení letového provozu České republiky
Letiste: LKNA Aktualizace: 31.05.2016 14:06:09  UTC
 METAR LKNA 31.05. 14:00 ...
METAR LKNA 311400Z 18008KT CAVOK 21/13 Q1010 NOSIG=
 TAF LKNA 31.05. 11:00 ...
TAF LKNA 311100Z 3112/0112 12004KT 9999 SCT040      TEMPO 3112/3118 SHRA BKN025TCU      TEMPO 3112/3117 16010G20KT 6000 TSRA SCT020CB BKN025      BECMG 3118/3120 CAVOK=